sensor_id;sensor_type;location;lat;lon;timestamp;pressure;altitude;pressure_sealevel;temperature;humidity
65557;BME280;52200;53.490;14.376;2024-02-21T00:00:02;101756.72;;;6.75;99.21
65557;BME280;52200;53.490;14.376;2024-02-21T00:02:27;101760.84;;;6.67;99.91
65557;BME280;52200;53.490;14.376;2024-02-21T00:04:53;101749.97;;;6.74;98.92
65557;BME280;52200;53.490;14.376;2024-02-21T00:07:18;101750.81;;;6.77;99.14
65557;BME280;52200;53.490;14.376;2024-02-21T00:09:43;101743.31;;;6.87;99.62
65557;BME280;52200;53.490;14.376;2024-02-21T00:12:09;101744.03;;;6.70;99.74
65557;BME280;52200;53.490;14.376;2024-02-21T00:14:34;101738.19;;;6.76;100.00
65557;BME280;52200;53.490;14.376;2024-02-21T00:16:59;101736.56;;;6.89;99.22
65557;BME280;52200;53.490;14.376;2024-02-21T00:19:25;101740.75;;;6.81;98.97
65557;BME280;52200;53.490;14.376;2024-02-21T00:21:50;101734.81;;;6.71;100.00
65557;BME280;52200;53.490;14.376;2024-02-21T00:24:15;101735.78;;;7.01;99.87
65557;BME280;52200;53.490;14.376;2024-02-21T00:26:41;101735.59;;;6.62;99.33
65557;BME280;52200;53.490;14.376;2024-02-21T00:29:06;101731.44;;;6.70;100.00
65557;BME280;52200;53.490;14.376;2024-02-21T00:31:32;101734.84;;;6.80;100.00
65557;BME280;52200;53.490;14.376;2024-02-21T00:33:57;101724.81;;;6.89;99.69
65557;BME280;52200;53.490;14.376;2024-02-21T00:36:23;101722.22;;;6.82;98.96
65557;BME280;52200;53.490;14.376;2024-02-21T00:38:48;101706.94;;;6.57;99.83
65557;BME280;52200;53.490;14.376;2024-02-21T00:41:13;101700.31;;;6.74;99.42
65557;BME280;52200;53.490;14.376;2024-02-21T00:43:39;101697.69;;;6.59;100.00
65557;BME280;52200;53.490;14.376;2024-02-21T00:46:06;101700.38;;;6.87;99.62
65557;BME280;52200;53.490;14.376;2024-02-21T00:48:31;101693.53;;;6.67;99.91
65557;BME280;52200;53.490;14.376;2024-02-21T00:50:57;101688.50;;;6.67;99.78
65557;BME280;52200;53.490;14.376;2024-02-21T00:53:22;101686.69;;;6.48;100.00
65557;BME280;52200;53.490;14.376;2024-02-21T00:55:47;101692.69;;;6.62;100.00
65557;BME280;52200;53.490;14.376;2024-02-21T00:58:13;101684.22;;;6.54;100.00
65557;BME280;52200;53.490;14.376;2024-02-21T01:00:38;101688.44;;;6.55;100.00
65557;BME280;52200;53.490;14.376;2024-02-21T01:03:04;101686.69;;;6.51;100.00
65557;BME280;52200;53.490;14.376;2024-02-21T01:05:29;101674.88;;;6.43;100.00
65557;BME280;52200;53.490;14.376;2024-02-21T01:07:54;101665.66;;;6.45;100.00
65557;BME280;52200;53.490;14.376;2024-02-21T01:10:20;101674.00;;;6.38;100.00
65557;BME280;52200;53.490;14.376;2024-02-21T01:12:45;101672.34;;;6.43;100.00
65557;BME280;52200;53.490;14.376;2024-02-21T01:15:11;101670.66;;;6.38;100.00
65557;BME280;52200;53.490;14.376;2024-02-21T01:17:37;101663.22;;;6.64;100.00
65557;BME280;52200;53.490;14.376;2024-02-21T01:20:03;101663.97;;;6.48;100.00
65557;BME280;52200;53.490;14.376;2024-02-21T01:22:31;101658.03;;;6.36;100.00
65557;BME280;52200;53.490;14.376;2024-02-21T01:24:56;101651.31;;;6.44;100.00
65557;BME280;52200;53.490;14.376;2024-02-21T01:27:21;101649.69;;;6.53;100.00
65557;BME280;52200;53.490;14.376;2024-02-21T01:29:47;101646.34;;;6.57;100.00
65557;BME280;52200;53.490;14.376;2024-02-21T01:32:15;101648.91;;;6.58;99.97
65557;BME280;52200;53.490;14.376;2024-02-21T01:34:40;101645.41;;;6.36;100.00
65557;BME280;52200;53.490;14.376;2024-02-21T01:37:06;101645.50;;;6.59;100.00
65557;BME280;52200;53.490;14.376;2024-02-21T01:39:33;101643.00;;;6.58;99.93
65557;BME280;52200;53.490;14.376;2024-02-21T01:41:58;101637.97;;;6.63;99.59
65557;BME280;52200;53.490;14.376;2024-02-21T01:44:24;101638.75;;;6.48;100.00
65557;BME280;52200;53.490;14.376;2024-02-21T01:46:50;101630.38;;;6.58;100.00
65557;BME280;52200;53.490;14.376;2024-02-21T01:49:17;101641.34;;;6.69;100.00
65557;BME280;52200;53.490;14.376;2024-02-21T01:51:43;101634.63;;;6.73;99.89
65557;BME280;52200;53.490;14.376;2024-02-21T01:54:10;101636.31;;;6.75;100.00
65557;BME280;52200;53.490;14.376;2024-02-21T01:56:36;101625.47;;;6.92;99.26
65557;BME280;52200;53.490;14.376;2024-02-21T01:59:02;101628.81;;;6.94;98.28
65557;BME280;52200;53.490;14.376;2024-02-21T02:01:29;101622.91;;;6.80;98.98
65557;BME280;52200;53.490;14.376;2024-02-21T02:03:55;101617.84;;;6.83;98.01
65557;BME280;52200;53.490;14.376;2024-02-21T02:06:20;101615.38;;;7.00;97.40
65557;BME280;52200;53.490;14.376;2024-02-21T02:08:46;101608.59;;;6.92;98.19
65557;BME280;52200;53.490;14.376;2024-02-21T02:11:13;101612.69;;;6.55;98.47
65557;BME280;52200;53.490;14.376;2024-02-21T02:13:40;101606.06;;;6.86;98.67
65557;BME280;52200;53.490;14.376;2024-02-21T02:16:06;101600.19;;;6.87;97.94
65557;BME280;52200;53.490;14.376;2024-02-21T02:18:31;101597.63;;;6.83;98.14
65557;BME280;52200;53.490;14.376;2024-02-21T02:20:56;101587.53;;;6.73;98.81
65557;BME280;52200;53.490;14.376;2024-02-21T02:23:30;101582.44;;;6.61;99.65
65557;BME280;52200;53.490;14.376;2024-02-21T02:25:57;101587.53;;;6.73;99.86
65557;BME280;52200;53.490;14.376;2024-02-21T02:28:23;101583.28;;;6.75;99.54
65557;BME280;52200;53.490;14.376;2024-02-21T02:30:49;101579.09;;;6.74;99.16
65557;BME280;52200;53.490;14.376;2024-02-21T02:33:15;101570.69;;;6.88;99.31
65557;BME280;52200;53.490;14.376;2024-02-21T02:35:43;101572.41;;;6.89;98.54
65557;BME280;52200;53.490;14.376;2024-02-21T02:38:08;101574.88;;;6.67;99.69
65557;BME280;52200;53.490;14.376;2024-02-21T02:40:35;101571.53;;;6.74;99.84
65557;BME280;52200;53.490;14.376;2024-02-21T02:43:01;101565.66;;;6.83;99.31
65557;BME280;52200;53.490;14.376;2024-02-21T02:45:27;101560.56;;;6.65;100.00
65557;BME280;52200;53.490;14.376;2024-02-21T02:47:53;101555.44;;;6.49;100.00
65557;BME280;52200;53.490;14.376;2024-02-21T02:50:26;101555.50;;;6.69;100.00
65557;BME280;52200;53.490;14.376;2024-02-21T02:52:52;101550.44;;;6.60;100.00
65557;BME280;52200;53.490;14.376;2024-02-21T02:55:18;101547.09;;;6.67;100.00
65557;BME280;52200;53.490;14.376;2024-02-21T02:57:44;101542.00;;;6.55;100.00
65557;BME280;52200;53.490;14.376;2024-02-21T03:00:13;101535.22;;;6.41;100.00
65557;BME280;52200;53.490;14.376;2024-02-21T03:02:41;101536.88;;;6.30;100.00
65557;BME280;52200;53.490;14.376;2024-02-21T03:07:40;101528.44;;;6.28;100.00
65557;BME280;52200;53.490;14.376;2024-02-21T03:10:06;101512.53;;;6.46;100.00
65557;BME280;52200;53.490;14.376;2024-02-21T03:12:32;101515.09;;;6.63;100.00
65557;BME280;52200;53.490;14.376;2024-02-21T03:14:57;101516.78;;;6.64;100.00
65557;BME280;52200;53.490;14.376;2024-02-21T03:17:23;101506.59;;;6.41;100.00
65557;BME280;52200;53.490;14.376;2024-02-21T03:19:48;101499.84;;;6.32;100.00
65557;BME280;52200;53.490;14.376;2024-02-21T03:22:15;101496.56;;;6.56;100.00
65557;BME280;52200;53.490;14.376;2024-02-21T03:24:42;101492.34;;;6.54;100.00
65557;BME280;52200;53.490;14.376;2024-02-21T03:27:07;101493.13;;;6.37;100.00
65557;BME280;52200;53.490;14.376;2024-02-21T03:29:33;101492.31;;;6.37;100.00
65557;BME280;52200;53.490;14.376;2024-02-21T03:31:59;101492.31;;;6.35;100.00
65557;BME280;52200;53.490;14.376;2024-02-21T03:34:24;101485.59;;;6.42;100.00
65557;BME280;52200;53.490;14.376;2024-02-21T03:36:49;101486.47;;;6.52;100.00
65557;BME280;52200;53.490;14.376;2024-02-21T03:39:15;101483.13;;;6.65;100.00
65557;BME280;52200;53.490;14.376;2024-02-21T03:41:40;101484.75;;;6.49;100.00
65557;BME280;52200;53.490;14.376;2024-02-21T03:44:06;101478.03;;;6.40;100.00
65557;BME280;52200;53.490;14.376;2024-02-21T03:46:31;101476.34;;;6.45;100.00
65557;BME280;52200;53.490;14.376;2024-02-21T03:48:57;101467.94;;;6.40;100.00
65557;BME280;52200;53.490;14.376;2024-02-21T03:51:22;101466.22;;;6.32;100.00
65557;BME280;52200;53.490;14.376;2024-02-21T03:53:48;101459.53;;;6.49;100.00
65557;BME280;52200;53.490;14.376;2024-02-21T03:56:13;101454.50;;;6.54;100.00
65557;BME280;52200;53.490;14.376;2024-02-21T03:58:39;101449.41;;;6.35;100.00
65557;BME280;52200;53.490;14.376;2024-02-21T04:01:04;101457.84;;;6.53;100.00
65557;BME280;52200;53.490;14.376;2024-02-21T04:03:30;101447.72;;;6.42;100.00
65557;BME280;52200;53.490;14.376;2024-02-21T04:05:56;101445.19;;;6.42;100.00
65557;BME280;52200;53.490;14.376;2024-02-21T04:08:22;101432.56;;;6.26;100.00
65557;BME280;52200;53.490;14.376;2024-02-21T04:10:48;101422.50;;;6.40;100.00
65557;BME280;52200;53.490;14.376;2024-02-21T04:13:13;101420.75;;;6.11;100.00
65557;BME280;52200;53.490;14.376;2024-02-21T04:15:39;101419.06;;;6.20;100.00
65557;BME280;52200;53.490;14.376;2024-02-21T04:18:04;101420.72;;;6.05;100.00
65557;BME280;52200;53.490;14.376;2024-02-21T04:20:30;101419.09;;;6.21;100.00
65557;BME280;52200;53.490;14.376;2024-02-21T04:22:56;101419.91;;;6.16;100.00
65557;BME280;52200;53.490;14.376;2024-02-21T04:25:22;101420.75;;;6.21;100.00
65557;BME280;52200;53.490;14.376;2024-02-21T04:27:47;101414.06;;;6.23;100.00
65557;BME280;52200;53.490;14.376;2024-02-21T04:30:13;101413.25;;;6.36;100.00
65557;BME280;52200;53.490;14.376;2024-02-21T04:32:39;101406.50;;;6.38;100.00
65557;BME280;52200;53.490;14.376;2024-02-21T04:35:05;101412.41;;;6.45;100.00
65557;BME280;52200;53.490;14.376;2024-02-21T04:37:30;101414.91;;;6.50;100.00
65557;BME280;52200;53.490;14.376;2024-02-21T04:39:56;101399.78;;;6.50;100.00
65557;BME280;52200;53.490;14.376;2024-02-21T04:42:22;101397.25;;;6.50;100.00
65557;BME280;52200;53.490;14.376;2024-02-21T04:44:47;101395.59;;;6.42;100.00
65557;BME280;52200;53.490;14.376;2024-02-21T04:47:13;101388.84;;;6.57;100.00
65557;BME280;52200;53.490;14.376;2024-02-21T04:49:38;101379.59;;;6.42;100.00
65557;BME280;52200;53.490;14.376;2024-02-21T04:52:04;101372.88;;;6.45;100.00
65557;BME280;52200;53.490;14.376;2024-02-21T04:54:29;101364.47;;;6.51;100.00
65557;BME280;52200;53.490;14.376;2024-02-21T04:56:55;101356.84;;;6.31;100.00
65557;BME280;52200;53.490;14.376;2024-02-21T04:59:20;101356.03;;;6.35;100.00
65557;BME280;52200;53.490;14.376;2024-02-21T05:01:46;101354.34;;;6.48;100.00
65557;BME280;52200;53.490;14.376;2024-02-21T05:04:11;101370.34;;;6.55;100.00
65557;BME280;52200;53.490;14.376;2024-02-21T05:06:38;101366.13;;;6.51;100.00
65557;BME280;52200;53.490;14.376;2024-02-21T05:09:05;101350.16;;;6.64;100.00
65557;BME280;52200;53.490;14.376;2024-02-21T05:11:31;101360.25;;;6.55;100.00
65557;BME280;52200;53.490;14.376;2024-02-21T05:13:56;101369.53;;;6.57;100.00
65557;BME280;52200;53.490;14.376;2024-02-21T05:16:22;101364.47;;;6.59;100.00
65557;BME280;52200;53.490;14.376;2024-02-21T05:18:48;101353.50;;;6.57;100.00
65557;BME280;52200;53.490;14.376;2024-02-21T05:21:13;101360.25;;;6.63;100.00
65557;BME280;52200;53.490;14.376;2024-02-21T05:23:39;101367.84;;;6.55;100.00
65557;BME280;52200;53.490;14.376;2024-02-21T05:26:07;101370.34;;;6.64;100.00
65557;BME280;52200;53.490;14.376;2024-02-21T05:28:33;101372.03;;;6.82;100.00
65557;BME280;52200;53.490;14.376;2024-02-21T05:30:58;101367.00;;;6.68;100.00
65557;BME280;52200;53.490;14.376;2024-02-21T05:33:24;101366.97;;;6.67;100.00
65557;BME280;52200;53.490;14.376;2024-02-21T05:35:50;101353.50;;;6.63;100.00
65557;BME280;52200;53.490;14.376;2024-02-21T05:38:17;101340.91;;;6.78;100.00
65557;BME280;52200;53.490;14.376;2024-02-21T05:40:44;101343.41;;;6.69;100.00
65557;BME280;52200;53.490;14.376;2024-02-21T05:43:09;101340.03;;;6.70;100.00
65557;BME280;52200;53.490;14.376;2024-02-21T05:45:35;101337.50;;;6.87;100.00
65557;BME280;52200;53.490;14.376;2024-02-21T05:48:01;101335.00;;;6.76;100.00
65557;BME280;52200;53.490;14.376;2024-02-21T05:50:28;101329.97;;;6.80;100.00
65557;BME280;52200;53.490;14.376;2024-02-21T05:52:56;101345.09;;;6.70;100.00
65557;BME280;52200;53.490;14.376;2024-02-21T05:55:22;101345.94;;;6.82;100.00
65557;BME280;52200;53.490;14.376;2024-02-21T05:57:49;101344.28;;;6.74;100.00
65557;BME280;52200;53.490;14.376;2024-02-21T06:00:15;101353.53;;;6.78;100.00
65557;BME280;52200;53.490;14.376;2024-02-21T06:02:41;101347.63;;;6.92;100.00
65557;BME280;52200;53.490;14.376;2024-02-21T06:05:07;101352.66;;;6.93;100.00
65557;BME280;52200;53.490;14.376;2024-02-21T06:07:33;101341.75;;;6.70;100.00
65557;BME280;52200;53.490;14.376;2024-02-21T06:10:02;101309.75;;;6.80;100.00
65557;BME280;52200;53.490;14.376;2024-02-21T06:12:28;101324.91;;;6.80;100.00
65557;BME280;52200;53.490;14.376;2024-02-21T06:14:54;101337.50;;;6.87;100.00
65557;BME280;52200;53.490;14.376;2024-02-21T06:17:19;101334.97;;;6.89;100.00
65557;BME280;52200;53.490;14.376;2024-02-21T06:19:45;101338.31;;;7.00;100.00
65557;BME280;52200;53.490;14.376;2024-02-21T06:22:11;101341.72;;;6.90;100.00
65557;BME280;52200;53.490;14.376;2024-02-21T06:24:37;101327.41;;;6.92;100.00
65557;BME280;52200;53.490;14.376;2024-02-21T06:27:04;101324.88;;;6.83;100.00
65557;BME280;52200;53.490;14.376;2024-02-21T06:29:31;101325.72;;;6.86;100.00
65557;BME280;52200;53.490;14.376;2024-02-21T06:31:56;101318.16;;;6.86;100.00
65557;BME280;52200;53.490;14.376;2024-02-21T06:34:22;101318.16;;;6.96;100.00
65557;BME280;52200;53.490;14.376;2024-02-21T06:36:47;101318.97;;;6.96;100.00
65557;BME280;52200;53.490;14.376;2024-02-21T06:39:13;101321.53;;;6.93;100.00
65557;BME280;52200;53.490;14.376;2024-02-21T06:41:38;101322.34;;;6.95;100.00
65557;BME280;52200;53.490;14.376;2024-02-21T06:44:05;101320.66;;;6.86;100.00
65557;BME280;52200;53.490;14.376;2024-02-21T06:46:31;101338.34;;;6.97;100.00
65557;BME280;52200;53.490;14.376;2024-02-21T06:48:59;101336.66;;;6.99;100.00
65557;BME280;52200;53.490;14.376;2024-02-21T06:51:25;101329.03;;;7.13;100.00
65557;BME280;52200;53.490;14.376;2024-02-21T06:53:51;101328.16;;;7.19;100.00
65557;BME280;52200;53.490;14.376;2024-02-21T06:56:17;101309.66;;;7.17;100.00
65557;BME280;52200;53.490;14.376;2024-02-21T06:58:43;101311.38;;;6.98;100.00
65557;BME280;52200;53.490;14.376;2024-02-21T07:01:08;101313.91;;;7.05;100.00
65557;BME280;52200;53.490;14.376;2024-02-21T07:03:34;101314.75;;;7.01;100.00
65557;BME280;52200;53.490;14.376;2024-02-21T07:05:59;101313.97;;;6.87;100.00
65557;BME280;52200;53.490;14.376;2024-02-21T07:08:25;101310.53;;;6.99;100.00
65557;BME280;52200;53.490;14.376;2024-02-21T07:10:51;101309.69;;;6.97;100.00
65557;BME280;52200;53.490;14.376;2024-02-21T07:13:17;101308.00;;;7.06;100.00
65557;BME280;52200;53.490;14.376;2024-02-21T07:15:42;101299.59;;;6.95;100.00
65557;BME280;52200;53.490;14.376;2024-02-21T07:18:08;101298.75;;;7.01;100.00
65557;BME280;52200;53.490;14.376;2024-02-21T07:20:33;101299.59;;;6.95;100.00
65557;BME280;52200;53.490;14.376;2024-02-21T07:23:02;101302.97;;;7.08;100.00
65557;BME280;52200;53.490;14.376;2024-02-21T07:25:27;101298.72;;;7.15;100.00
65557;BME280;52200;53.490;14.376;2024-02-21T07:27:53;101292.81;;;7.22;100.00
65557;BME280;52200;53.490;14.376;2024-02-21T07:30:18;101299.44;;;7.49;100.00
65557;BME280;52200;53.490;14.376;2024-02-21T07:32:44;101299.41;;;7.51;100.00
65557;BME280;52200;53.490;14.376;2024-02-21T07:35:09;101296.13;;;7.36;100.00
65557;BME280;52200;53.490;14.376;2024-02-21T07:37:38;101294.41;;;7.43;100.00
65557;BME280;52200;53.490;14.376;2024-02-21T07:40:06;101301.09;;;7.52;100.00
65557;BME280;52200;53.490;14.376;2024-02-21T07:42:37;101287.69;;;7.39;100.00
65557;BME280;52200;53.490;14.376;2024-02-21T07:45:03;101291.13;;;7.24;100.00
65557;BME280;52200;53.490;14.376;2024-02-21T07:47:28;101287.66;;;7.42;100.00
65557;BME280;52200;53.490;14.376;2024-02-21T07:49:54;101280.91;;;7.46;100.00
65557;BME280;52200;53.490;14.376;2024-02-21T07:52:20;101280.78;;;7.66;100.00
65557;BME280;52200;53.490;14.376;2024-02-21T07:54:45;101282.41;;;7.74;100.00
65557;BME280;52200;53.490;14.376;2024-02-21T07:57:10;101287.31;;;8.02;100.00
65557;BME280;52200;53.490;14.376;2024-02-21T07:59:36;101269.72;;;7.85;100.00
65557;BME280;52200;53.490;14.376;2024-02-21T08:02:01;101281.47;;;7.94;100.00
65557;BME280;52200;53.490;14.376;2024-02-21T08:04:27;101275.41;;;8.17;100.00
65557;BME280;52200;53.490;14.376;2024-02-21T08:06:54;101284.78;;;7.99;100.00
65557;BME280;52200;53.490;14.376;2024-02-21T08:09:26;101282.31;;;7.93;100.00
65557;BME280;52200;53.490;14.376;2024-02-21T08:11:53;101266.31;;;7.89;100.00
65557;BME280;52200;53.490;14.376;2024-02-21T08:14:19;101258.72;;;7.88;100.00
65557;BME280;52200;53.490;14.376;2024-02-21T08:16:44;101267.16;;;7.87;100.00
65557;BME280;52200;53.490;14.376;2024-02-21T08:19:10;101272.09;;;8.07;100.00
65557;BME280;52200;53.490;14.376;2024-02-21T08:21:36;101266.78;;;8.36;100.00
65557;BME280;52200;53.490;14.376;2024-02-21T08:24:02;101266.88;;;8.27;100.00
65557;BME280;52200;53.490;14.376;2024-02-21T08:26:27;101268.56;;;8.25;100.00
65557;BME280;52200;53.490;14.376;2024-02-21T08:28:55;101267.13;;;7.96;100.00
65557;BME280;52200;53.490;14.376;2024-02-21T08:31:24;101261.03;;;8.20;100.00
65557;BME280;52200;53.490;14.376;2024-02-21T08:33:56;101257.00;;;7.96;100.00
65557;BME280;52200;53.490;14.376;2024-02-21T08:36:27;101256.22;;;7.83;100.00
65557;BME280;52200;53.490;14.376;2024-02-21T08:38:52;101263.03;;;7.80;100.00
65557;BME280;52200;53.490;14.376;2024-02-21T08:41:18;101263.00;;;7.86;100.00
65557;BME280;52200;53.490;14.376;2024-02-21T08:43:43;101267.13;;;7.96;100.00
65557;BME280;52200;53.490;14.376;2024-02-21T08:46:09;101262.84;;;8.06;100.00
65557;BME280;52200;53.490;14.376;2024-02-21T08:48:34;101266.09;;;8.22;100.00
65557;BME280;52200;53.490;14.376;2024-02-21T08:50:59;101258.53;;;8.16;100.00
65557;BME280;52200;53.490;14.376;2024-02-21T08:53:25;101268.63;;;8.19;100.00
65557;BME280;52200;53.490;14.376;2024-02-21T08:55:50;101274.44;;;8.30;100.00
65557;BME280;52200;53.490;14.376;2024-02-21T08:58:16;101274.59;;;8.12;100.00
65557;BME280;52200;53.490;14.376;2024-02-21T09:00:41;101263.59;;;8.16;100.00
65557;BME280;52200;53.490;14.376;2024-02-21T09:03:07;101266.91;;;8.24;100.00
65557;BME280;52200;53.490;14.376;2024-02-21T09:05:32;101274.44;;;8.32;100.00
65557;BME280;52200;53.490;14.376;2024-02-21T09:08:00;101265.19;;;8.29;100.00
65557;BME280;52200;53.490;14.376;2024-02-21T09:10:25;101264.25;;;8.36;99.19
65557;BME280;52200;53.490;14.376;2024-02-21T09:12:51;101257.56;;;8.32;98.99
65557;BME280;52200;53.490;14.376;2024-02-21T09:15:16;101254.97;;;8.42;98.95
65557;BME280;52200;53.490;14.376;2024-02-21T09:17:42;101249.84;;;8.45;99.38
65557;BME280;52200;53.490;14.376;2024-02-21T09:20:08;101256.41;;;8.67;99.85
65557;BME280;52200;53.490;14.376;2024-02-21T09:22:34;101246.00;;;8.92;98.87
65557;BME280;52200;53.490;14.376;2024-02-21T09:25:01;101246.06;;;8.86;96.75
65557;BME280;52200;53.490;14.376;2024-02-21T09:27:28;101253.06;;;8.65;97.45
65557;BME280;52200;53.490;14.376;2024-02-21T09:29:54;101253.03;;;8.68;96.77
65557;BME280;52200;53.490;14.376;2024-02-21T09:32:19;101255.38;;;8.85;97.13
65557;BME280;52200;53.490;14.376;2024-02-21T09:34:44;101258.03;;;8.75;96.35
65557;BME280;52200;53.490;14.376;2024-02-21T09:37:10;101265.78;;;8.59;97.76
65557;BME280;52200;53.490;14.376;2024-02-21T09:39:36;101264.88;;;8.65;98.26
65557;BME280;52200;53.490;14.376;2024-02-21T09:42:11;101269.06;;;8.70;97.36
65557;BME280;52200;53.490;14.376;2024-02-21T09:44:37;101267.44;;;8.63;97.34
65557;BME280;52200;53.490;14.376;2024-02-21T09:47:22;101274.03;;;8.78;96.94
65557;BME280;52200;53.490;14.376;2024-02-21T09:49:49;101273.94;;;8.87;97.36
65557;BME280;52200;53.490;14.376;2024-02-21T09:52:19;101267.78;;;9.09;96.12
65557;BME280;52200;53.490;14.376;2024-02-21T09:54:45;101269.63;;;8.94;95.35
65557;BME280;52200;53.490;14.376;2024-02-21T09:57:14;101263.03;;;8.82;95.82
65557;BME280;52200;53.490;14.376;2024-02-21T09:59:40;101260.97;;;9.14;95.21
65557;BME280;52200;53.490;14.376;2024-02-21T10:02:08;101254.22;;;9.13;95.07
65557;BME280;52200;53.490;14.376;2024-02-21T10:04:34;101270.44;;;9.01;95.21
65557;BME280;52200;53.490;14.376;2024-02-21T10:06:59;101278.44;;;9.37;94.81
65557;BME280;52200;53.490;14.376;2024-02-21T10:09:26;101265.50;;;9.57;92.78
65557;BME280;52200;53.490;14.376;2024-02-21T10:12:11;101260.47;;;9.54;91.75
65557;BME280;52200;53.490;14.376;2024-02-21T10:14:37;101265.53;;;9.54;92.65
65557;BME280;52200;53.490;14.376;2024-02-21T10:17:02;101264.72;;;9.52;92.42
65557;BME280;52200;53.490;14.376;2024-02-21T10:19:30;101263.47;;;9.81;93.84
65557;BME280;52200;53.490;14.376;2024-02-21T10:22:03;101264.66;;;10.13;90.18
65557;BME280;52200;53.490;14.376;2024-02-21T10:24:29;101269.31;;;10.41;89.24
65557;BME280;52200;53.490;14.376;2024-02-21T10:27:08;101266.31;;;10.15;88.59
65557;BME280;52200;53.490;14.376;2024-02-21T10:29:36;101264.03;;;10.00;89.00
65557;BME280;52200;53.490;14.376;2024-02-21T10:32:11;101268.50;;;9.84;89.91
65557;BME280;52200;53.490;14.376;2024-02-21T10:34:38;101265.03;;;9.88;90.01
65557;BME280;52200;53.490;14.376;2024-02-21T10:37:06;101262.56;;;9.83;90.05
65557;BME280;52200;53.490;14.376;2024-02-21T10:39:37;101258.34;;;9.84;90.20
65557;BME280;52200;53.490;14.376;2024-02-21T10:42:03;101260.94;;;9.79;91.42
65557;BME280;52200;53.490;14.376;2024-02-21T10:44:30;101266.75;;;9.86;90.60
65557;BME280;52200;53.490;14.376;2024-02-21T10:46:57;101258.53;;;9.72;91.41
65557;BME280;52200;53.490;14.376;2024-02-21T10:49:23;101251.34;;;9.98;91.59
65557;BME280;52200;53.490;14.376;2024-02-21T10:52:14;101241.84;;;9.55;91.06
65557;BME280;52200;53.490;14.376;2024-02-21T10:54:52;101242.13;;;9.33;93.48
65557;BME280;52200;53.490;14.376;2024-02-21T10:57:21;101237.88;;;9.37;93.85
65557;BME280;52200;53.490;14.376;2024-02-21T10:59:48;101232.81;;;9.37;92.68
65557;BME280;52200;53.490;14.376;2024-02-21T11:02:15;101220.09;;;9.39;93.06
65557;BME280;52200;53.490;14.376;2024-02-21T11:04:41;101219.22;;;9.41;93.18
65557;BME280;52200;53.490;14.376;2024-02-21T11:07:08;101229.75;;;9.73;92.33
65557;BME280;52200;53.490;14.376;2024-02-21T11:09:34;101225.81;;;9.53;91.53
65557;BME280;52200;53.490;14.376;2024-02-21T11:12:04;101218.06;;;9.62;91.59
65557;BME280;52200;53.490;14.376;2024-02-21T11:14:31;101218.34;;;10.00;91.33
65557;BME280;52200;53.490;14.376;2024-02-21T11:17:17;101217.28;;;10.12;91.05
65557;BME280;52200;53.490;14.376;2024-02-21T11:19:43;101215.13;;;9.89;90.01
65557;BME280;52200;53.490;14.376;2024-02-21T11:22:16;101200.91;;;9.78;90.42
65557;BME280;52200;53.490;14.376;2024-02-21T11:24:42;101204.09;;;9.91;90.64
65557;BME280;52200;53.490;14.376;2024-02-21T11:27:22;101194.81;;;9.90;91.27
65557;BME280;52200;53.490;14.376;2024-02-21T11:29:57;101183.00;;;9.86;90.30
65557;BME280;52200;53.490;14.376;2024-02-21T11:32:25;101181.06;;;10.04;89.12
65557;BME280;52200;53.490;14.376;2024-02-21T11:34:54;101181.81;;;10.07;89.86
65557;BME280;52200;53.490;14.376;2024-02-21T11:37:20;101181.84;;;10.06;88.52
65557;BME280;52200;53.490;14.376;2024-02-21T11:39:45;101190.94;;;10.19;87.66
65557;BME280;52200;53.490;14.376;2024-02-21T11:42:11;101198.53;;;10.19;86.65
65557;BME280;52200;53.490;14.376;2024-02-21T11:44:38;101172.63;;;10.50;86.60
65557;BME280;52200;53.490;14.376;2024-02-21T11:47:06;101183.34;;;10.64;86.37
65557;BME280;52200;53.490;14.376;2024-02-21T11:49:38;101184.91;;;10.72;84.96
65557;BME280;52200;53.490;14.376;2024-02-21T11:52:06;101179.06;;;10.67;84.19
65557;BME280;52200;53.490;14.376;2024-02-21T11:54:33;101185.53;;;10.38;85.23
65557;BME280;52200;53.490;14.376;2024-02-21T11:57:00;101180.31;;;10.45;86.47
65557;BME280;52200;53.490;14.376;2024-02-21T11:59:25;101177.59;;;10.56;84.82
65557;BME280;52200;53.490;14.376;2024-02-21T12:01:52;101175.31;;;10.85;84.38
65557;BME280;52200;53.490;14.376;2024-02-21T12:04:19;101170.41;;;10.77;82.88
65557;BME280;52200;53.490;14.376;2024-02-21T12:06:46;101164.69;;;10.67;82.97
65557;BME280;52200;53.490;14.376;2024-02-21T12:09:17;101167.63;;;10.89;83.00
65557;BME280;52200;53.490;14.376;2024-02-21T12:11:44;101167.69;;;11.25;82.19
65557;BME280;52200;53.490;14.376;2024-02-21T12:14:10;101161.22;;;11.48;80.83
65557;BME280;52200;53.490;14.376;2024-02-21T12:16:36;101160.59;;;11.38;80.75
65557;BME280;52200;53.490;14.376;2024-02-21T12:19:05;101153.16;;;11.31;80.95
65557;BME280;52200;53.490;14.376;2024-02-21T12:21:33;101145.03;;;11.15;80.60
65557;BME280;52200;53.490;14.376;2024-02-21T12:24:22;101145.81;;;11.54;79.95
65557;BME280;52200;53.490;14.376;2024-02-21T12:26:49;101138.31;;;11.48;79.42
65557;BME280;52200;53.490;14.376;2024-02-21T12:29:14;101144.41;;;11.42;79.91
65557;BME280;52200;53.490;14.376;2024-02-21T12:31:40;101143.69;;;11.36;79.30
65557;BME280;52200;53.490;14.376;2024-02-21T12:34:06;101131.81;;;11.00;80.30
65557;BME280;52200;53.490;14.376;2024-02-21T12:36:32;101137.97;;;10.88;80.38
65557;BME280;52200;53.490;14.376;2024-02-21T12:38:58;101139.66;;;10.89;79.49
65557;BME280;52200;53.490;14.376;2024-02-21T12:41:24;101138.09;;;10.82;79.83